Time;durP1;ratioP1;P1;durP2;ratioP2;P2;SDS_P1;SDS_P2;PMS_P1;PMS_P2;Temp;Humidity;BMP_temperature;BMP_pressure;BME280_temperature;BME280_humidity;BME280_pressure;Samples;Min_cycle;Max_cycle;Signal;HPM_P1;HPM_P2
2022/11/10 00:01:53;;;;;;;;;;;11.20;99.90;;;;;;5093504;28;19923;-32
2022/11/10 00:04:19;;;;;;;;;;;11.10;99.90;;;;;;5105514;28;19974;-35
2022/11/10 00:06:48;;;;;;;;;;;11.20;99.90;;;;;;5103180;27;19998;-37
2022/11/10 00:09:13;;;;;;;;;;;11.10;99.90;;;;;;5114552;28;20226;-40
2022/11/10 00:11:39;;;;;;;;;;;11.10;99.90;;;;;;5105895;28;19959;-31
2022/11/10 00:17:03;;;;;;;;;;;11.10;99.90;;;;;;5103579;28;20285;-35
2022/11/10 00:19:29;;;;;;;;;;;11.10;99.90;;;;;;5107474;28;20359;-40
2022/11/10 00:21:54;;;;;;;;;;;11.10;99.90;;;;;;5112586;28;19961;-39
2022/11/10 00:24:20;;;;;;;;;;;11.10;99.90;;;;;;5103962;28;19912;-39
2022/11/10 00:26:46;;;;;;;;;;;11.10;99.90;;;;;;5108956;28;20264;-40
2022/11/10 00:29:11;;;;;;;;;;;11.10;99.90;;;;;;5113521;28;19907;-46
2022/11/10 00:31:37;;;;;;;;;;;11.10;99.90;;;;;;5113582;28;19911;-51
2022/11/10 00:34:03;;;;;;;;;;;11.00;99.90;;;;;;5100498;28;19999;-39
2022/11/10 00:36:29;;;;;;;;;;;11.10;99.90;;;;;;5125235;28;20004;-38
2022/11/10 00:38:54;;;;;;;;;;;11.10;99.90;;;;;;5113505;28;19974;-32
2022/11/10 00:41:20;;;;;;;;;;;11.10;99.90;;;;;;5102708;28;19961;-33
2022/11/10 00:43:46;;;;;;;;;;;11.10;99.90;;;;;;5093489;28;19912;-33
2022/11/10 00:46:11;;;;;;;;;;;11.20;99.90;;;;;;5093611;28;19942;-36
2022/11/10 00:48:37;;;;;;;;;;;11.10;99.90;;;;;;5091869;28;19908;-33
2022/11/10 00:51:02;;;;;;;;;;;11.20;99.90;;;;;;5092611;28;20355;-35
2022/11/10 00:53:28;;;;;;;;;;;11.20;99.90;;;;;;5101278;28;19969;-33
2022/11/10 00:55:53;;;;;;;;;;;11.10;99.90;;;;;;5100762;28;20328;-31
2022/11/10 00:58:19;;;;;;;;;;;11.10;99.90;;;;;;5092850;28;19911;-38
2022/11/10 01:00:44;;;;;;;;;;;11.10;99.90;;;;;;5095687;28;19916;-33
2022/11/10 01:03:14;;;;;;;;;;;11.00;99.90;;;;;;5092840;28;20378;-39
2022/11/10 01:05:39;;;;;;;;;;;11.10;99.90;;;;;;5095132;28;19980;-36
2022/11/10 01:08:05;;;;;;;;;;;11.00;99.90;;;;;;5103890;28;19908;-38
2022/11/10 01:10:30;;;;;;;;;;;11.00;99.90;;;;;;5095265;28;19912;-38
2022/11/10 01:12:56;;;;;;;;;;;11.00;99.90;;;;;;5110537;28;19959;-41
2022/11/10 01:15:21;;;;;;;;;;;11.00;99.90;;;;;;5099506;28;19908;-37
2022/11/10 01:17:47;;;;;;;;;;;11.00;99.90;;;;;;5108205;28;20347;-38
2022/11/10 01:20:13;;;;;;;;;;;11.00;99.90;;;;;;5105953;28;19964;-39
2022/11/10 01:22:39;;;;;;;;;;;11.00;99.90;;;;;;5096836;28;19957;-39
2022/11/10 01:25:05;;;;;;;;;;;11.00;99.90;;;;;;5099695;28;19923;-41
2022/11/10 01:27:30;;;;;;;;;;;11.00;99.90;;;;;;5113197;28;19908;-40
2022/11/10 01:29:56;;;;;;;;;;;11.10;99.90;;;;;;5108599;28;19911;-40
2022/11/10 01:32:22;;;;;;;;;;;11.20;99.90;;;;;;5107895;28;19992;-40
2022/11/10 01:34:47;;;;;;;;;;;11.20;99.90;;;;;;5105987;28;19915;-31
2022/11/10 01:37:13;;;;;;;;;;;11.20;99.90;;;;;;5098674;28;19912;-35
2022/11/10 01:39:38;;;;;;;;;;;11.20;99.90;;;;;;5096195;28;19912;-33
2022/11/10 01:42:04;;;;;;;;;;;11.20;99.90;;;;;;5097741;28;19912;-38
2022/11/10 01:44:29;;;;;;;;;;;11.10;99.90;;;;;;5104587;28;19973;-39
2022/11/10 01:46:55;;;;;;;;;;;11.10;99.90;;;;;;5105837;28;19994;-35
2022/11/10 01:49:24;;;;;;;;;;;11.20;99.90;;;;;;5109005;28;19970;-38
2022/11/10 01:51:59;;;;;;;;;;;11.10;99.90;;;;;;5096463;28;20356;-38
2022/11/10 01:54:33;;;;;;;;;;;11.10;99.90;;;;;;5103691;28;20260;-38
2022/11/10 01:57:01;;;;;;;;;;;11.10;99.90;;;;;;5112840;28;19999;-39
2022/11/10 01:59:29;;;;;;;;;;;11.10;99.90;;;;;;5096977;28;20387;-40
2022/11/10 02:01:57;;;;;;;;;;;11.10;99.90;;;;;;5105441;28;19941;-40
2022/11/10 02:04:23;;;;;;;;;;;11.00;99.90;;;;;;5100811;28;19912;-31
2022/11/10 02:06:49;;;;;;;;;;;11.00;99.90;;;;;;5098112;28;19908;-32
2022/11/10 02:09:15;;;;;;;;;;;11.00;99.90;;;;;;5096488;28;19915;-31
2022/11/10 02:11:41;;;;;;;;;;;11.00;99.90;;;;;;5107088;28;19912;-40
2022/11/10 02:14:07;;;;;;;;;;;11.00;99.90;;;;;;5096572;28;19916;-35
2022/11/10 02:16:33;;;;;;;;;;;11.00;99.90;;;;;;5111812;28;20439;-33
2022/11/10 02:19:11;;;;;;;;;;;11.00;99.90;;;;;;5114411;28;19945;-33
2022/11/10 02:21:37;;;;;;;;;;;11.00;99.90;;;;;;5099799;28;19943;-32
2022/11/10 02:24:02;;;;;;;;;;;10.90;99.90;;;;;;5097153;28;20008;-30
2022/11/10 02:26:28;;;;;;;;;;;10.90;99.90;;;;;;5105437;28;19919;-36
2022/11/10 02:28:54;;;;;;;;;;;10.90;99.90;;;;;;5095983;28;19959;-35
2022/11/10 02:31:20;;;;;;;;;;;10.90;99.90;;;;;;5113405;28;19954;-31
2022/11/10 02:33:45;;;;;;;;;;;10.90;99.90;;;;;;5115296;28;20415;-38
2022/11/10 02:36:13;;;;;;;;;;;10.90;99.90;;;;;;5092574;28;20011;-35
2022/11/10 02:38:39;;;;;;;;;;;10.90;99.90;;;;;;5103969;28;19931;-36
2022/11/10 02:41:05;;;;;;;;;;;10.90;99.90;;;;;;5102385;28;19915;-33
2022/11/10 02:43:31;;;;;;;;;;;10.90;99.90;;;;;;5097111;28;20377;-40
2022/11/10 02:45:56;;;;;;;;;;;10.90;99.90;;;;;;5099619;28;19919;-38
2022/11/10 02:48:22;;;;;;;;;;;10.80;99.90;;;;;;5109804;28;19912;-30
2022/11/10 02:50:47;;;;;;;;;;;10.80;99.90;;;;;;5094096;28;20336;-38
2022/11/10 02:53:13;;;;;;;;;;;10.80;99.90;;;;;;5114055;28;19916;-32
2022/11/10 02:55:38;;;;;;;;;;;10.80;99.90;;;;;;5096414;28;20394;-31
2022/11/10 02:58:04;;;;;;;;;;;10.80;99.90;;;;;;5102713;28;19973;-31
2022/11/10 03:00:29;;;;;;;;;;;10.80;99.90;;;;;;5108865;28;19908;-34
2022/11/10 03:02:56;;;;;;;;;;;10.80;99.90;;;;;;5109412;28;19911;-31
2022/11/10 03:05:22;;;;;;;;;;;10.80;99.90;;;;;;5107581;28;19914;-30
2022/11/10 03:07:57;;;;;;;;;;;10.80;99.90;;;;;;5108755;28;19908;-35
2022/11/10 03:10:23;;;;;;;;;;;10.70;99.90;;;;;;5093390;28;19994;-31
2022/11/10 03:13:07;;;;;;;;;;;10.80;99.90;;;;;;5095562;28;20054;-31
2022/11/10 03:15:33;;;;;;;;;;;10.80;99.90;;;;;;5103177;28;20371;-31
2022/11/10 03:18:02;;;;;;;;;;;10.70;99.90;;;;;;5104412;28;20044;-30
2022/11/10 03:20:27;;;;;;;;;;;10.70;99.90;;;;;;5109666;28;20355;-38
2022/11/10 03:22:52;;;;;;;;;;;10.80;99.90;;;;;;5092943;28;19919;-42
2022/11/10 03:25:18;;;;;;;;;;;10.70;99.90;;;;;;5095140;28;19908;-39
2022/11/10 03:27:43;;;;;;;;;;;10.70;99.90;;;;;;5107646;28;20291;-47
2022/11/10 03:30:09;;;;;;;;;;;10.70;99.90;;;;;;5103344;28;19908;-39
2022/11/10 03:32:35;;;;;;;;;;;10.70;99.90;;;;;;5093200;28;19962;-38
2022/11/10 03:35:00;;;;;;;;;;;10.60;99.90;;;;;;5104164;28;19914;-39
2022/11/10 03:37:26;;;;;;;;;;;10.50;99.90;;;;;;5111058;28;19914;-38
2022/11/10 03:39:51;;;;;;;;;;;10.50;99.90;;;;;;5101253;28;20287;-36
2022/11/10 03:42:17;;;;;;;;;;;10.50;99.90;;;;;;5098165;28;19961;-38
2022/11/10 03:44:42;;;;;;;;;;;10.60;99.90;;;;;;5100776;28;19961;-38
2022/11/10 03:47:08;;;;;;;;;;;10.60;99.90;;;;;;5106578;28;19914;-37
2022/11/10 03:49:33;;;;;;;;;;;10.50;99.90;;;;;;5111864;28;19985;-36
2022/11/10 03:51:59;;;;;;;;;;;10.50;99.90;;;;;;5103305;28;19960;-34
2022/11/10 03:54:24;;;;;;;;;;;10.50;99.90;;;;;;5093112;28;19956;-33
2022/11/10 03:56:50;;;;;;;;;;;10.50;99.90;;;;;;5094858;28;20394;-35
2022/11/10 03:59:15;;;;;;;;;;;10.50;99.90;;;;;;5093075;28;19908;-33
2022/11/10 04:01:41;;;;;;;;;;;10.50;99.90;;;;;;5094142;28;20258;-33
2022/11/10 04:08:57;;;;;;;;;;;10.50;99.90;;;;;;5106033;28;19965;-32
2022/11/10 04:09:36;;;;;;;;;;;10.50;99.90;;;;;;5109696;28;19976;-34
2022/11/10 04:17:30;;;;;;;;;;;10.50;99.90;;;;;;5103700;28;19926;-36
2022/11/10 04:19:55;;;;;;;;;;;10.50;99.90;;;;;;5110431;28;19908;-32
2022/11/10 04:23:25;;;;;;;;;;;10.50;99.90;;;;;;5098705;28;19913;-32
2022/11/10 04:25:07;;;;;;;;;;;10.50;99.90;;;;;;5111506;28;20031;-35
2022/11/10 04:27:32;;;;;;;;;;;10.50;99.90;;;;;;5103041;28;19995;-31
2022/11/10 04:29:57;;;;;;;;;;;10.50;99.90;;;;;;5098461;28;20375;-31
2022/11/10 04:32:23;;;;;;;;;;;10.50;99.90;;;;;;5094194;28;19970;-37
2022/11/10 04:34:48;;;;;;;;;;;10.50;99.90;;;;;;5100062;28;19915;-30
2022/11/10 04:37:14;;;;;;;;;;;10.50;99.90;;;;;;5107339;28;20042;-35
2022/11/10 04:39:39;;;;;;;;;;;10.50;99.90;;;;;;5102253;28;19953;-37
2022/11/10 04:42:05;;;;;;;;;;;10.50;99.90;;;;;;5098579;28;20295;-39
2022/11/10 04:44:30;;;;;;;;;;;10.50;99.90;;;;;;5109381;28;19919;-51
2022/11/10 04:46:56;;;;;;;;;;;10.50;99.90;;;;;;5104045;28;19908;-35
2022/11/10 04:49:22;;;;;;;;;;;10.50;99.90;;;;;;5110149;28;19907;-31
2022/11/10 04:51:47;;;;;;;;;;;10.50;99.90;;;;;;5105315;28;20287;-33
2022/11/10 04:54:13;;;;;;;;;;;10.50;99.90;;;;;;5095184;28;19915;-37
2022/11/10 04:56:39;;;;;;;;;;;10.50;99.90;;;;;;5109871;28;19987;-39
2022/11/10 04:59:04;;;;;;;;;;;10.50;99.90;;;;;;5104607;28;19912;-40
2022/11/10 05:01:30;;;;;;;;;;;10.50;99.90;;;;;;5107867;28;19922;-38
2022/11/10 05:03:55;;;;;;;;;;;10.50;99.90;;;;;;5104235;27;19925;-38
2022/11/10 05:06:21;;;;;;;;;;;10.40;99.90;;;;;;5121459;27;19908;-40
2022/11/10 05:08:47;;;;;;;;;;;10.40;99.90;;;;;;5101449;28;19907;-38
2022/11/10 05:11:13;;;;;;;;;;;10.50;99.90;;;;;;5109017;28;20367;-41
2022/11/10 05:13:38;;;;;;;;;;;10.50;99.90;;;;;;5107829;28;19908;-40
2022/11/10 05:16:04;;;;;;;;;;;10.50;99.90;;;;;;5097360;28;19914;-39
2022/11/10 05:18:30;;;;;;;;;;;10.50;99.90;;;;;;5095523;28;20367;-39
2022/11/10 05:20:55;;;;;;;;;;;10.50;99.90;;;;;;5098495;28;20000;-39
2022/11/10 05:23:36;;;;;;;;;;;10.50;99.90;;;;;;5098464;28;20401;-39
2022/11/10 05:26:03;;;;;;;;;;;10.50;99.90;;;;;;5107618;28;19908;-43
2022/11/10 05:28:28;;;;;;;;;;;10.50;99.90;;;;;;5102740;28;19922;-58
2022/11/10 05:30:54;;;;;;;;;;;10.40;99.90;;;;;;5108602;28;20360;-37
2022/11/10 05:33:19;;;;;;;;;;;10.50;99.90;;;;;;5099450;28;19912;-38
2022/11/10 05:35:47;;;;;;;;;;;10.50;99.90;;;;;;5109995;28;19907;-37
2022/11/10 05:38:12;;;;;;;;;;;10.40;99.90;;;;;;5097375;28;20276;-39
2022/11/10 05:40:38;;;;;;;;;;;10.40;99.90;;;;;;5110036;28;19908;-39
2022/11/10 05:43:03;;;;;;;;;;;10.40;99.90;;;;;;5096086;28;20342;-40
2022/11/10 05:45:29;;;;;;;;;;;10.50;99.90;;;;;;5096941;28;19916;-39
2022/11/10 05:47:55;;;;;;;;;;;10.50;99.90;;;;;;5106085;28;19939;-39
2022/11/10 05:50:21;;;;;;;;;;;10.50;99.90;;;;;;5113837;28;20374;-40
2022/11/10 05:52:48;;;;;;;;;;;10.40;99.90;;;;;;5114437;28;19915;-34
2022/11/10 05:55:14;;;;;;;;;;;10.50;99.90;;;;;;5104981;28;20391;-32
2022/11/10 05:57:44;;;;;;;;;;;10.50;99.90;;;;;;5102849;28;19954;-31
2022/11/10 06:00:09;;;;;;;;;;;10.50;99.90;;;;;;5095804;28;19915;-32
2022/11/10 06:02:35;;;;;;;;;;;10.50;99.90;;;;;;5098440;28;19907;-32
2022/11/10 06:05:01;;;;;;;;;;;10.50;99.90;;;;;;5104332;28;19913;-34
2022/11/10 06:07:26;;;;;;;;;;;10.50;99.90;;;;;;5104316;28;19915;-34
2022/11/10 06:09:52;;;;;;;;;;;10.50;99.90;;;;;;5097437;28;19938;-36
2022/11/10 06:12:17;;;;;;;;;;;10.50;99.90;;;;;;5095789;28;19908;-30
2022/11/10 06:14:43;;;;;;;;;;;10.40;99.90;;;;;;5094942;28;19908;-33
2022/11/10 06:17:08;;;;;;;;;;;10.50;99.90;;;;;;5096106;28;19923;-34
2022/11/10 06:19:34;;;;;;;;;;;10.50;99.90;;;;;;5108448;28;19908;-33
2022/11/10 06:21:59;;;;;;;;;;;10.40;99.90;;;;;;5097904;28;19908;-33
2022/11/10 06:24:25;;;;;;;;;;;10.50;99.90;;;;;;5108744;28;20385;-34
2022/11/10 06:26:50;;;;;;;;;;;10.50;99.90;;;;;;5104577;28;19915;-33
2022/11/10 06:29:16;;;;;;;;;;;10.50;99.90;;;;;;5107721;28;19915;-34
2022/11/10 06:31:41;;;;;;;;;;;10.50;99.90;;;;;;5110220;28;20367;-32
2022/11/10 06:34:07;;;;;;;;;;;10.50;99.90;;;;;;5104791;28;19908;-32
2022/11/10 06:36:32;;;;;;;;;;;10.50;99.90;;;;;;5102828;28;19907;-33
2022/11/10 06:38:58;;;;;;;;;;;10.50;99.90;;;;;;5105017;28;20291;-33
2022/11/10 06:41:23;;;;;;;;;;;10.50;99.90;;;;;;5105117;28;19918;-33
2022/11/10 06:43:49;;;;;;;;;;;10.50;99.90;;;;;;5094171;28;19965;-39
2022/11/10 06:46:14;;;;;;;;;;;10.60;99.90;;;;;;5108467;28;19908;-40
2022/11/10 06:48:40;;;;;;;;;;;10.60;99.90;;;;;;5112550;28;19922;-37
2022/11/10 06:51:05;;;;;;;;;;;10.60;99.90;;;;;;5113539;28;19911;-39
2022/11/10 06:53:31;;;;;;;;;;;10.50;99.90;;;;;;5112490;28;20259;-40
2022/11/10 06:55:56;;;;;;;;;;;10.50;99.90;;;;;;5111224;28;19922;-40
2022/11/10 06:58:22;;;;;;;;;;;10.60;99.90;;;;;;5097994;28;19951;-40
2022/11/10 07:00:48;;;;;;;;;;;10.60;99.90;;;;;;5114273;28;20336;-40
2022/11/10 07:03:14;;;;;;;;;;;10.60;99.90;;;;;;5102596;28;20371;-40
2022/11/10 07:05:39;;;;;;;;;;;10.70;99.90;;;;;;5093952;28;20002;-40
2022/11/10 07:08:07;;;;;;;;;;;10.60;99.90;;;;;;5091457;28;20340;-40
2022/11/10 07:10:33;;;;;;;;;;;10.60;99.90;;;;;;5094437;28;19922;-40
2022/11/10 07:12:59;;;;;;;;;;;10.60;99.90;;;;;;5099102;28;19961;-39
2022/11/10 07:15:25;;;;;;;;;;;10.60;99.90;;;;;;5104282;28;19912;-40
2022/11/10 07:17:51;;;;;;;;;;;10.70;99.90;;;;;;5107991;28;20405;-31
2022/11/10 07:20:16;;;;;;;;;;;10.70;99.90;;;;;;5097027;28;20371;-31
2022/11/10 07:22:42;;;;;;;;;;;10.70;99.90;;;;;;5094198;28;19916;-34
2022/11/10 07:25:07;;;;;;;;;;;10.70;99.90;;;;;;5104874;28;19908;-32
2022/11/10 07:27:33;;;;;;;;;;;10.70;99.90;;;;;;5098646;28;19916;-35
2022/11/10 07:29:58;;;;;;;;;;;10.70;99.90;;;;;;5095077;28;19912;-40
2022/11/10 07:32:24;;;;;;;;;;;10.80;99.90;;;;;;5101614;28;19995;-40
2022/11/10 07:34:50;;;;;;;;;;;10.80;99.90;;;;;;5101876;28;19916;-39
2022/11/10 07:37:15;;;;;;;;;;;10.80;99.90;;;;;;5107817;28;19907;-39
2022/11/10 07:39:41;;;;;;;;;;;10.90;99.90;;;;;;5102951;28;19907;-39
2022/11/10 07:42:07;;;;;;;;;;;10.90;99.90;;;;;;5104342;28;19940;-43
2022/11/10 07:44:32;;;;;;;;;;;10.90;99.90;;;;;;5096235;28;19916;-40
2022/11/10 07:46:58;;;;;;;;;;;10.90;99.90;;;;;;5109710;28;20279;-40
2022/11/10 07:49:24;;;;;;;;;;;11.00;99.90;;;;;;5099800;28;19955;-40
2022/11/10 07:51:49;;;;;;;;;;;11.00;99.90;;;;;;5095092;28;19996;-40
2022/11/10 07:54:15;;;;;;;;;;;11.10;99.90;;;;;;5093327;28;20268;-40
2022/11/10 07:56:41;;;;;;;;;;;11.10;99.90;;;;;;5095603;28;20009;-40
2022/11/10 07:59:06;;;;;;;;;;;11.10;99.90;;;;;;5113786;28;20282;-40
2022/11/10 08:01:32;;;;;;;;;;;11.20;99.90;;;;;;5111989;28;19908;-42
2022/11/10 08:03:58;;;;;;;;;;;11.30;99.90;;;;;;5113596;28;19943;-41
2022/11/10 08:06:24;;;;;;;;;;;11.30;99.90;;;;;;5113800;28;19961;-38
2022/11/10 08:08:49;;;;;;;;;;;11.40;99.90;;;;;;5094818;28;19916;-40
2022/11/10 08:11:15;;;;;;;;;;;11.40;99.90;;;;;;5093399;28;20371;-40
2022/11/10 08:13:40;;;;;;;;;;;11.50;99.90;;;;;;5093146;28;19908;-39
2022/11/10 08:16:06;;;;;;;;;;;11.60;99.90;;;;;;5093619;28;19908;-39
2022/11/10 08:18:31;;;;;;;;;;;11.70;99.90;;;;;;5092776;28;20012;-50
2022/11/10 08:20:59;;;;;;;;;;;11.80;99.90;;;;;;5093343;28;19914;-39
2022/11/10 08:23:24;;;;;;;;;;;11.90;99.90;;;;;;5094230;28;19912;-40
2022/11/10 08:25:52;;;;;;;;;;;12.00;99.90;;;;;;5097777;28;20287;-40
2022/11/10 08:28:18;;;;;;;;;;;12.20;99.90;;;;;;5109691;28;20402;-39
2022/11/10 08:30:45;;;;;;;;;;;12.20;99.90;;;;;;5108765;28;19912;-35
2022/11/10 08:33:11;;;;;;;;;;;12.30;99.90;;;;;;5097331;28;19907;-32
2022/11/10 08:35:37;;;;;;;;;;;12.40;99.90;;;;;;5109710;28;20355;-32
2022/11/10 08:38:11;;;;;;;;;;;12.50;99.90;;;;;;5110538;28;20970;-35
2022/11/10 08:40:37;;;;;;;;;;;12.50;99.90;;;;;;5117549;28;20363;-31
2022/11/10 08:43:06;;;;;;;;;;;12.50;99.90;;;;;;5112627;28;20002;-37
2022/11/10 08:45:32;;;;;;;;;;;12.50;99.90;;;;;;5110093;28;19908;-31
2022/11/10 08:48:01;;;;;;;;;;;12.50;99.90;;;;;;5099687;28;19908;-33
2022/11/10 08:50:27;;;;;;;;;;;12.50;99.90;;;;;;5096874;28;19908;-32
2022/11/10 08:52:53;;;;;;;;;;;12.50;99.90;;;;;;5096442;28;19934;-38
2022/11/10 08:55:19;;;;;;;;;;;12.60;99.90;;;;;;5096901;28;20286;-31
2022/11/10 08:57:45;;;;;;;;;;;12.60;99.90;;;;;;5099998;28;20287;-31
2022/11/10 09:00:11;;;;;;;;;;;12.70;99.90;;;;;;5117425;28;19961;-32
2022/11/10 09:02:37;;;;;;;;;;;12.70;99.90;;;;;;5105000;28;19972;-32
2022/11/10 09:05:03;;;;;;;;;;;12.70;99.90;;;;;;5096701;28;19912;-44
2022/11/10 09:07:29;;;;;;;;;;;12.70;99.90;;;;;;5096629;28;19908;-36
2022/11/10 09:09:55;;;;;;;;;;;12.80;99.90;;;;;;5096602;28;19915;-37
2022/11/10 09:12:20;;;;;;;;;;;12.80;99.90;;;;;;5103408;28;20367;-31
2022/11/10 09:14:46;;;;;;;;;;;12.80;99.90;;;;;;5116956;28;19908;-41
2022/11/10 09:17:12;;;;;;;;;;;12.90;99.90;;;;;;5115571;28;19919;-39
2022/11/10 09:19:37;;;;;;;;;;;12.90;99.90;;;;;;5116943;28;20390;-42
2022/11/10 09:22:03;;;;;;;;;;;13.00;99.90;;;;;;5111375;28;19912;-45
2022/11/10 09:24:28;;;;;;;;;;;13.10;99.90;;;;;;5096411;28;19918;-43
2022/11/10 09:26:54;;;;;;;;;;;13.10;99.90;;;;;;5096037;28;19922;-30
2022/11/10 09:29:20;;;;;;;;;;;13.20;99.90;;;;;;5112804;28;19915;-31
2022/11/10 09:31:46;;;;;;;;;;;13.30;99.90;;;;;;5096999;28;19995;-32
2022/11/10 09:34:11;;;;;;;;;;;13.40;99.90;;;;;;5095829;28;20019;-29
2022/11/10 09:36:39;;;;;;;;;;;13.50;99.90;;;;;;5095078;28;19909;-34
2022/11/10 09:39:05;;;;;;;;;;;13.50;99.90;;;;;;5094442;28;19908;-38
2022/11/10 09:41:31;;;;;;;;;;;13.60;99.90;;;;;;5115970;28;19953;-41
2022/11/10 09:44:08;;;;;;;;;;;13.70;99.90;;;;;;5098330;28;19916;-40
2022/11/10 09:46:36;;;;;;;;;;;13.70;99.90;;;;;;5095979;28;20010;-42
2022/11/10 09:49:17;;;;;;;;;;;13.80;99.90;;;;;;5097834;28;20279;-41
2022/11/10 09:51:43;;;;;;;;;;;14.00;99.90;;;;;;5116233;28;19916;-41
2022/11/10 09:54:26;;;;;;;;;;;14.10;99.90;;;;;;5116235;28;19997;-57
2022/11/10 09:56:55;;;;;;;;;;;14.20;99.90;;;;;;5116218;28;19950;-39
2022/11/10 09:59:28;;;;;;;;;;;14.30;99.90;;;;;;5097759;28;19914;-43
2022/11/10 10:01:53;;;;;;;;;;;14.30;99.90;;;;;;5103891;28;19961;-46
2022/11/10 10:04:28;;;;;;;;;;;14.30;99.90;;;;;;5115888;28;19969;-30
2022/11/10 10:07:06;;;;;;;;;;;14.30;99.90;;;;;;5115846;28;19919;-32
2022/11/10 10:09:38;;;;;;;;;;;14.30;99.90;;;;;;5097258;28;19911;-31
2022/11/10 10:12:12;;;;;;;;;;;14.40;99.90;;;;;;5115839;28;19916;-33
2022/11/10 10:14:56;;;;;;;;;;;14.40;99.90;;;;;;5114231;28;19908;-46
2022/11/10 10:17:28;;;;;;;;;;;14.40;99.90;;;;;;5115577;28;19921;-30
2022/11/10 10:20:12;;;;;;;;;;;14.40;99.90;;;;;;5110100;28;19912;-33
2022/11/10 10:22:56;;;;;;;;;;;14.40;99.90;;;;;;5095115;28;20443;-31
2022/11/10 10:25:22;;;;;;;;;;;14.60;99.90;;;;;;5095382;28;19912;-42
2022/11/10 10:27:50;;;;;;;;;;;14.70;99.90;;;;;;5095503;28;20010;-38
2022/11/10 10:30:17;;;;;;;;;;;14.80;99.90;;;;;;5095044;28;20333;-33
2022/11/10 10:32:42;;;;;;;;;;;14.80;99.90;;;;;;5095290;28;20394;-38
2022/11/10 10:35:11;;;;;;;;;;;14.90;99.90;;;;;;5093499;28;19908;-32
2022/11/10 10:37:43;;;;;;;;;;;15.00;99.90;;;;;;5093240;28;19908;-40
2022/11/10 10:40:13;;;;;;;;;;;15.10;99.90;;;;;;5099230;28;19943;-31
2022/11/10 10:42:39;;;;;;;;;;;15.10;99.90;;;;;;5115374;28;20359;-38
2022/11/10 10:45:11;;;;;;;;;;;15.20;99.90;;;;;;5113742;28;19914;-30
2022/11/10 10:47:36;;;;;;;;;;;15.30;99.90;;;;;;5109586;28;19945;-34
2022/11/10 10:50:14;;;;;;;;;;;15.30;99.90;;;;;;5115043;28;19961;-31
2022/11/10 10:52:40;;;;;;;;;;;15.30;99.90;;;;;;5115344;28;20359;-34
2022/11/10 10:55:06;;;;;;;;;;;15.30;99.90;;;;;;5113583;28;20052;-32
2022/11/10 10:57:31;;;;;;;;;;;15.30;99.90;;;;;;5113549;28;19990;-36
2022/11/10 11:00:17;;;;;;;;;;;15.30;99.90;;;;;;5112903;28;20391;-40
2022/11/10 11:02:42;;;;;;;;;;;15.30;99.90;;;;;;5113427;28;19908;-40
2022/11/10 11:05:13;;;;;;;;;;;15.20;99.90;;;;;;5113311;28;19915;-44
2022/11/10 11:07:38;;;;;;;;;;;15.20;99.90;;;;;;5098819;28;20371;-39
2022/11/10 11:10:21;;;;;;;;;;;15.20;99.90;;;;;;5114688;28;19914;-34
2022/11/10 11:12:46;;;;;;;;;;;15.20;99.90;;;;;;5114608;28;19907;-32
2022/11/10 11:15:21;;;;;;;;;;;15.10;99.90;;;;;;5098585;28;20506;-31
2022/11/10 11:17:57;;;;;;;;;;;15.10;99.90;;;;;;5094030;28;19923;-33
2022/11/10 11:20:29;;;;;;;;;;;15.20;99.90;;;;;;5094252;28;19916;-33
2022/11/10 11:23:21;;;;;;;;;;;15.20;99.90;;;;;;5097525;27;19944;-30
2022/11/10 11:25:47;;;;;;;;;;;15.30;99.90;;;;;;5096063;28;20002;-36
2022/11/10 11:28:18;;;;;;;;;;;15.30;99.90;;;;;;5102880;28;19908;-39
2022/11/10 11:31:03;;;;;;;;;;;15.30;99.90;;;;;;5099797;28;19915;-37
2022/11/10 11:33:28;;;;;;;;;;;15.40;99.90;;;;;;5096805;28;20390;-36
2022/11/10 11:36:01;;;;;;;;;;;15.40;99.90;;;;;;5092591;28;19908;-31
2022/11/10 11:38:32;;;;;;;;;;;15.50;99.90;;;;;;5097367;28;19908;-44
2022/11/10 11:41:07;;;;;;;;;;;15.50;99.90;;;;;;5100466;28;19908;-40
2022/11/10 11:43:33;;;;;;;;;;;15.50;99.90;;;;;;5102663;28;19921;-35
2022/11/10 11:46:01;;;;;;;;;;;15.40;99.90;;;;;;5099620;28;20356;-39
2022/11/10 11:48:48;;;;;;;;;;;15.40;99.90;;;;;;5101733;28;19976;-40
2022/11/10 11:51:29;;;;;;;;;;;15.50;99.90;;;;;;5105491;28;19955;-39
2022/11/10 11:54:07;;;;;;;;;;;15.50;99.90;;;;;;5110730;28;19914;-37
2022/11/10 11:56:36;;;;;;;;;;;15.50;99.90;;;;;;5106368;28;20363;-39
2022/11/10 11:59:02;;;;;;;;;;;15.50;99.90;;;;;;5100230;28;19914;-40
2022/11/10 12:01:46;;;;;;;;;;;15.40;99.90;;;;;;5109051;28;19908;-39
2022/11/10 12:04:14;;;;;;;;;;;15.50;99.90;;;;;;5094880;28;20576;-38
2022/11/10 12:06:52;;;;;;;;;;;15.50;99.90;;;;;;5103331;28;19908;-42
2022/11/10 12:09:47;;;;;;;;;;;15.50;99.90;;;;;;5099229;28;19908;-41
2022/11/10 12:12:15;;;;;;;;;;;15.50;99.90;;;;;;5090423;28;19960;-41
2022/11/10 12:14:46;;;;;;;;;;;15.60;99.90;;;;;;5109548;28;20002;-40
2022/11/10 12:17:30;;;;;;;;;;;15.60;99.90;;;;;;5113614;28;19922;-40
2022/11/10 12:20:01;;;;;;;;;;;15.60;99.90;;;;;;5109041;28;19912;-41
2022/11/10 12:22:42;;;;;;;;;;;15.60;99.90;;;;;;5111140;28;19955;-38
2022/11/10 12:25:10;;;;;;;;;;;15.60;99.90;;;;;;5110363;28;19934;-43
2022/11/10 12:27:38;;;;;;;;;;;15.50;99.90;;;;;;5092957;28;20283;-41
2022/11/10 12:30:09;;;;;;;;;;;15.60;99.90;;;;;;5098964;28;20417;-41
2022/11/10 12:32:51;;;;;;;;;;;15.60;99.90;;;;;;5099184;28;20375;-40
2022/11/10 12:35:17;;;;;;;;;;;15.60;99.90;;;;;;5106239;28;19999;-41
2022/11/10 12:37:54;;;;;;;;;;;15.60;99.90;;;;;;5112485;28;19943;-41
2022/11/10 12:40:21;;;;;;;;;;;15.60;99.90;;;;;;5114731;28;19950;-39
2022/11/10 12:43:00;;;;;;;;;;;15.60;99.90;;;;;;5112259;28;19932;-40
2022/11/10 12:45:45;;;;;;;;;;;15.50;99.90;;;;;;5113480;28;20283;-41
2022/11/10 12:48:12;;;;;;;;;;;15.50;99.90;;;;;;5113436;28;19908;-40
2022/11/10 12:50:55;;;;;;;;;;;15.50;99.90;;;;;;5103710;28;19943;-40
2022/11/10 12:53:22;;;;;;;;;;;15.50;99.90;;;;;;5096423;28;19915;-40
2022/11/10 12:55:56;;;;;;;;;;;15.50;99.90;;;;;;5101712;28;19976;-39
2022/11/10 12:58:22;;;;;;;;;;;15.40;99.90;;;;;;5094216;28;19915;-33
2022/11/10 13:01:01;;;;;;;;;;;15.40;99.90;;;;;;5093329;28;20344;-40
2022/11/10 13:03:31;;;;;;;;;;;15.50;99.90;;;;;;5099671;28;19912;-40
2022/11/10 13:05:58;;;;;;;;;;;15.50;99.90;;;;;;5097060;28;19922;-40
2022/11/10 13:08:33;;;;;;;;;;;15.40;99.90;;;;;;5106487;28;20299;-38
2022/11/10 13:11:04;;;;;;;;;;;15.40;99.90;;;;;;5112218;28;19912;-41
2022/11/10 13:13:38;;;;;;;;;;;15.40;99.90;;;;;;5108134;28;19916;-42
2022/11/10 13:16:04;;;;;;;;;;;15.40;99.90;;;;;;5101979;28;19915;-40
2022/11/10 13:18:29;;;;;;;;;;;15.50;99.90;;;;;;5107452;28;20295;-41
2022/11/10 13:20:55;;;;;;;;;;;15.50;99.90;;;;;;5108077;28;19908;-41
2022/11/10 13:23:22;;;;;;;;;;;15.50;99.90;;;;;;5116814;28;19908;-40
2022/11/10 13:25:52;;;;;;;;;;;15.60;99.90;;;;;;5130424;27;20382;-41
2022/11/10 13:28:36;;;;;;;;;;;15.60;99.90;;;;;;5121979;27;19908;-54
2022/11/10 13:31:21;;;;;;;;;;;15.60;99.90;;;;;;5096025;28;19908;-40
2022/11/10 13:34:06;;;;;;;;;;;15.70;99.90;;;;;;5109118;28;19919;-43
2022/11/10 13:36:44;;;;;;;;;;;15.70;99.90;;;;;;5104610;27;19943;-41
2022/11/10 13:39:18;;;;;;;;;;;15.70;99.90;;;;;;5095504;28;19908;-42
2022/11/10 13:41:48;;;;;;;;;;;15.80;99.90;;;;;;5106966;28;20359;-41
2022/11/10 13:44:21;;;;;;;;;;;15.70;99.90;;;;;;5104616;28;20371;-40
2022/11/10 13:47:00;;;;;;;;;;;15.70;99.90;;;;;;5100484;28;19933;-40
2022/11/10 13:49:41;;;;;;;;;;;15.70;99.90;;;;;;5104743;28;19927;-34
2022/11/10 13:52:06;;;;;;;;;;;15.60;99.90;;;;;;5096786;28;20002;-32
2022/11/10 13:54:31;;;;;;;;;;;15.60;99.90;;;;;;5093750;28;20332;-31
2022/11/10 13:57:16;;;;;;;;;;;15.60;99.90;;;;;;5095479;28;19911;-32
2022/11/10 13:59:54;;;;;;;;;;;15.50;99.90;;;;;;5095081;28;20332;-33
2022/11/10 14:02:32;;;;;;;;;;;15.50;99.90;;;;;;5096119;28;20405;-34
2022/11/10 14:04:58;;;;;;;;;;;15.60;99.90;;;;;;5095900;28;20275;-36
2022/11/10 14:07:24;;;;;;;;;;;15.60;99.90;;;;;;5095474;28;19908;-35
2022/11/10 14:09:50;;;;;;;;;;;15.60;99.90;;;;;;5111166;28;19915;-33
2022/11/10 14:12:27;;;;;;;;;;;15.60;99.90;;;;;;5115817;28;19947;-31
2022/11/10 14:14:59;;;;;;;;;;;15.60;99.90;;;;;;5113928;28;19951;-32
2022/11/10 14:17:26;;;;;;;;;;;15.60;99.90;;;;;;5112135;28;19965;-32
2022/11/10 14:20:10;;;;;;;;;;;15.60;99.90;;;;;;5105618;28;19908;-40
2022/11/10 14:22:43;;;;;;;;;;;15.60;99.90;;;;;;5107655;27;20394;-34
2022/11/10 14:25:21;;;;;;;;;;;15.60;99.90;;;;;;5100397;28;19911;-48
2022/11/10 14:27:46;;;;;;;;;;;15.60;99.90;;;;;;5097825;27;19934;-32
2022/11/10 14:30:23;;;;;;;;;;;15.60;99.90;;;;;;5093363;28;20333;-39
2022/11/10 14:32:56;;;;;;;;;;;15.60;99.90;;;;;;5102938;27;20417;-41
2022/11/10 14:35:23;;;;;;;;;;;15.60;99.90;;;;;;5094931;28;20310;-35